首页
METAR-TAF:

METAR-TAF

机场 :

拉奥罗拉国际机场

瓜地馬拉, 危地马拉

纬度: 14-35N, 经度: 090-31W, 海拔: 1489米

当前天气观测

该预报发布于13分钟前的12:00 UTC
静风
温度 18°C
湿度 88%
气压 1025 hPa
能見度: 8000
天空无云
轻雾

METAR: MGGT 091200Z 00000KT 8000 SKC 18/16 Q1025 A3027 BR

时间: 06:13 (12:13 UTC)

预报

该预报发布于7小时和13分钟前的05:00 UTC
预报有效从09日的 06点(UTC)到 10日的 06点(UTC)
风速8节,风向北转东北
能見度: 8000
天空无云
成为
从 09日的 16点(UTC)到 09日的 18点(UTC)
风速8节,风向
能見度: 6000
少量云层高于1800英尺
短暂存在
从 09日的 20点(UTC)到 09日的 24点(UTC)
散云层高于2000英尺
成为
从 10日的 01点(UTC)到 10日的 03点(UTC)
风速3节,风向多变
少量云层高于1600英尺

TAF: MGGT 090500Z 0906/1006 02008KT 8000 SKC TX29/0920Z TN16/0912Z BECMG 0916/0918 18008KT 6000 FEW018 TEMPO 0920/0924 SCT020 BECMG 1001/1003 VRB03KT FEW016

超过4000个机场的气象观测和天气预报(METAR&TAF报告)。

可查询的气象台以黄色和红色小点在地图上表示。

将鼠标移到小点上方,可查看气象台名称。

然后点击查看天气观测和预报。

如需切换地图:点击带黑十字的绿色按钮放大地图;点击带横线的绿色按钮缩小地图;或者点击绿色箭头查看邻近地区的地图。


METAR-TAF: